createdAt,value
2019-01-19T00:00:45.570Z,1018.30
2019-01-19T00:01:49.367Z,1018.30
2019-01-19T00:02:53.521Z,1018.28
2019-01-19T00:03:57.559Z,1018.29
2019-01-19T00:05:01.808Z,1018.30
2019-01-19T00:06:05.870Z,1018.30
2019-01-19T00:07:10.107Z,1018.30
2019-01-19T00:08:14.159Z,1018.32
2019-01-19T00:09:18.278Z,1018.30
2019-01-19T00:10:22.397Z,1018.31
2019-01-19T00:11:26.551Z,1018.30
2019-01-19T00:12:30.692Z,1018.30
2019-01-19T00:13:34.931Z,1018.33
2019-01-19T00:14:39.006Z,1018.32
2019-01-19T00:15:43.111Z,1018.31
2019-01-19T00:16:47.284Z,1018.32
2019-01-19T00:17:51.602Z,1018.33
2019-01-19T00:18:55.753Z,1018.34
2019-01-19T00:19:59.935Z,1018.35
2019-01-19T00:21:04.000Z,1018.34
2019-01-19T00:22:08.278Z,1018.33
2019-01-19T00:23:12.340Z,1018.32
2019-01-19T00:24:16.559Z,1018.32
2019-01-19T00:25:20.652Z,1018.30
2019-01-19T00:26:24.788Z,1018.32
2019-01-19T00:27:29.057Z,1018.33
2019-01-19T00:28:33.115Z,1018.35
2019-01-19T00:29:37.328Z,1018.33
2019-01-19T00:30:41.510Z,1018.31
2019-01-19T00:31:45.706Z,1018.26
2019-01-19T00:32:49.838Z,1018.26
2019-01-19T00:33:53.940Z,1018.24
2019-01-19T00:34:58.052Z,1018.23
2019-01-19T00:36:02.298Z,1018.24
2019-01-19T00:37:06.471Z,1018.25
2019-01-19T00:38:10.662Z,1018.25
2019-01-19T00:39:14.846Z,1018.25
2019-01-19T00:40:19.007Z,1018.26
2019-01-19T00:41:23.092Z,1018.26
2019-01-19T00:42:27.311Z,1018.25
2019-01-19T00:43:31.497Z,1018.29
2019-01-19T00:44:35.555Z,1018.28
2019-01-19T00:45:40.599Z,1018.27
2019-01-19T00:46:44.325Z,1018.28
2019-01-19T00:47:48.544Z,1018.26
2019-01-19T00:48:52.721Z,1018.25
2019-01-19T00:49:56.891Z,1018.25
2019-01-19T00:51:01.056Z,1018.23
2019-01-19T00:52:05.219Z,1018.25
2019-01-19T00:53:09.315Z,1018.24
2019-01-19T00:54:13.542Z,1018.24
2019-01-19T00:55:17.720Z,1018.25
2019-01-19T00:56:21.904Z,1018.25
2019-01-19T00:57:25.963Z,1018.27
2019-01-19T00:58:30.190Z,1018.27
2019-01-19T00:59:34.392Z,1018.30
2019-01-19T01:00:38.433Z,1018.29
2019-01-19T01:01:42.662Z,1018.32
2019-01-19T01:02:46.715Z,1018.32
2019-01-19T01:03:50.957Z,1018.33
2019-01-19T01:04:55.012Z,1018.32
2019-01-19T01:05:59.173Z,1018.33
2019-01-19T01:07:03.307Z,1018.31
2019-01-19T01:08:07.551Z,1018.31
2019-01-19T01:09:11.743Z,1018.31
2019-01-19T01:10:15.798Z,1018.32
2019-01-19T01:11:20.857Z,1018.30
2019-01-19T01:12:24.686Z,1018.30
2019-01-19T01:13:28.764Z,1018.30
2019-01-19T01:14:32.882Z,1018.30
2019-01-19T01:15:37.067Z,1018.29
2019-01-19T01:16:41.143Z,1018.28
2019-01-19T01:17:45.396Z,1018.29
2019-01-19T01:18:49.454Z,1018.31
2019-01-19T01:19:53.735Z,1018.29
2019-01-19T01:20:57.973Z,1018.30
2019-01-19T01:22:02.077Z,1018.31
2019-01-19T01:23:06.253Z,1018.34
2019-01-19T01:24:10.385Z,1018.32
2019-01-19T01:25:14.456Z,1018.33
2019-01-19T01:26:18.557Z,1018.32
2019-01-19T01:27:22.666Z,1018.34
2019-01-19T01:28:26.863Z,1018.35
2019-01-19T01:29:30.990Z,1018.34
2019-01-19T01:30:35.083Z,1018.32
2019-01-19T01:31:39.212Z,1018.30
2019-01-19T01:32:43.428Z,1018.30
2019-01-19T01:33:48.470Z,1018.30
2019-01-19T01:34:52.342Z,1018.30
2019-01-19T01:35:56.501Z,1018.31
2019-01-19T01:37:00.651Z,1018.30
2019-01-19T01:38:04.717Z,1018.29
2019-01-19T01:39:08.922Z,1018.28
2019-01-19T01:40:13.022Z,1018.28
2019-01-19T01:41:17.229Z,1018.28
2019-01-19T01:42:21.314Z,1018.28
2019-01-19T01:43:25.451Z,1018.29
2019-01-19T01:44:29.584Z,1018.26
2019-01-19T01:45:33.841Z,1018.28
2019-01-19T01:46:37.936Z,1018.28
2019-01-19T01:47:42.970Z,1018.27
2019-01-19T01:48:46.706Z,1018.27
2019-01-19T01:49:50.888Z,1018.27
2019-01-19T01:50:54.994Z,1018.24
2019-01-19T01:51:59.318Z,1018.28
2019-01-19T01:53:03.396Z,1018.24
2019-01-19T01:54:07.492Z,1018.27
2019-01-19T01:55:11.649Z,1018.30
2019-01-19T01:56:15.885Z,1018.27
2019-01-19T01:57:19.954Z,1018.27
2019-01-19T01:58:24.234Z,1018.26
2019-01-19T01:59:28.279Z,1018.24
2019-01-19T02:00:32.579Z,1018.24
2019-01-19T02:01:36.611Z,1018.24
2019-01-19T02:02:40.737Z,1018.22
2019-01-19T02:03:44.962Z,1018.21
2019-01-19T02:04:49.003Z,1018.21
2019-01-19T02:05:53.173Z,1018.22
2019-01-19T02:06:57.398Z,1018.22
2019-01-19T02:08:01.490Z,1018.22
2019-01-19T02:09:05.649Z,1018.22
2019-01-19T02:10:09.867Z,1018.23
2019-01-19T02:11:14.066Z,1018.22
2019-01-19T02:12:18.104Z,1018.21
2019-01-19T02:13:22.339Z,1018.20
2019-01-19T02:14:26.603Z,1018.21
2019-01-19T02:15:30.603Z,1018.21
2019-01-19T02:16:34.874Z,1018.24
2019-01-19T02:17:38.944Z,1018.23
2019-01-19T02:18:43.048Z,1018.22
2019-01-19T02:19:47.180Z,1018.21
2019-01-19T02:20:51.351Z,1018.23
2019-01-19T02:21:55.496Z,1018.24
2019-01-19T02:22:59.611Z,1018.24
2019-01-19T02:24:03.712Z,1018.24
2019-01-19T02:25:07.960Z,1018.24
2019-01-19T02:26:12.157Z,1018.22
2019-01-19T02:27:16.205Z,1018.24
2019-01-19T02:28:20.461Z,1018.21
2019-01-19T02:29:24.620Z,1018.21
2019-01-19T02:30:28.681Z,1018.22
2019-01-19T02:31:32.920Z,1018.23
2019-01-19T02:32:37.067Z,1018.23
2019-01-19T02:33:41.262Z,1018.26
2019-01-19T02:34:45.273Z,1018.26
2019-01-19T02:35:49.425Z,1018.25
2019-01-19T02:36:56.565Z,1018.26
2019-01-19T02:37:59.782Z,1018.27
2019-01-19T02:39:03.891Z,1018.27
2019-01-19T02:40:07.986Z,1018.25
2019-01-19T02:41:12.193Z,1018.27
2019-01-19T02:42:16.367Z,1018.28
2019-01-19T02:43:20.549Z,1018.27
2019-01-19T02:44:24.637Z,1018.30
2019-01-19T02:45:28.772Z,1018.28
2019-01-19T02:46:32.993Z,1018.28
2019-01-19T02:47:37.100Z,1018.29
2019-01-19T02:48:41.210Z,1018.30
2019-01-19T02:49:47.582Z,1018.29
2019-01-19T02:50:49.990Z,1018.28
2019-01-19T02:51:54.226Z,1018.29
2019-01-19T02:52:59.213Z,1018.31
2019-01-19T02:54:02.956Z,1018.30
2019-01-19T02:55:07.154Z,1018.31
2019-01-19T02:56:11.343Z,1018.30
2019-01-19T02:57:15.457Z,1018.31
2019-01-19T02:58:19.650Z,1018.31
2019-01-19T02:59:23.769Z,1018.30
2019-01-19T03:00:28.002Z,1018.28
2019-01-19T03:01:32.077Z,1018.27
2019-01-19T03:02:36.247Z,1018.25
2019-01-19T03:03:40.399Z,1018.26
2019-01-19T03:04:44.546Z,1018.23
2019-01-19T03:05:55.971Z,1018.23
2019-01-19T03:06:53.698Z,1018.24
2019-01-19T03:07:57.660Z,1018.23
2019-01-19T03:09:01.777Z,1018.22
2019-01-19T03:10:05.993Z,1018.24
2019-01-19T03:11:10.144Z,1018.24
2019-01-19T03:12:14.299Z,1018.24
2019-01-19T03:13:18.443Z,1018.24
2019-01-19T03:14:22.523Z,1018.23
2019-01-19T03:15:26.637Z,1018.23
2019-01-19T03:16:30.795Z,1018.25
2019-01-19T03:17:34.933Z,1018.24
2019-01-19T03:18:39.216Z,1018.24
2019-01-19T03:19:43.474Z,1018.23
2019-01-19T03:20:47.642Z,1018.20
2019-01-19T03:21:51.717Z,1018.19
2019-01-19T03:22:55.887Z,1018.21
2019-01-19T03:23:59.998Z,1018.20
2019-01-19T03:25:04.151Z,1018.20
2019-01-19T03:26:08.336Z,1018.17
2019-01-19T03:27:12.510Z,1018.16
2019-01-19T03:28:16.698Z,1018.17
2019-01-19T03:29:20.930Z,1018.15
2019-01-19T03:30:25.138Z,1018.14
2019-01-19T03:31:29.234Z,1018.14
2019-01-19T03:32:33.352Z,1018.14
2019-01-19T03:33:37.508Z,1018.15
2019-01-19T03:34:41.612Z,1018.11
2019-01-19T03:35:45.843Z,1018.09
2019-01-19T03:36:49.916Z,1018.09
2019-01-19T03:37:54.250Z,1018.07
2019-01-19T03:38:58.270Z,1018.09
2019-01-19T03:40:02.447Z,1018.08
2019-01-19T03:41:06.652Z,1018.11
2019-01-19T03:42:10.697Z,1018.09
2019-01-19T03:43:14.870Z,1018.09
2019-01-19T03:44:19.096Z,1018.11
2019-01-19T03:45:23.163Z,1018.11
2019-01-19T03:46:27.464Z,1018.13
2019-01-19T03:47:31.606Z,1018.15
2019-01-19T03:48:35.796Z,1018.15
2019-01-19T03:49:40.777Z,1018.17
2019-01-19T03:50:45.381Z,1018.20
2019-01-19T03:51:49.209Z,1018.20
2019-01-19T03:52:54.222Z,1018.21
2019-01-19T03:53:58.090Z,1018.23
2019-01-19T03:55:02.264Z,1018.22
2019-01-19T03:56:06.395Z,1018.24
2019-01-19T03:57:10.576Z,1018.23
2019-01-19T03:58:14.646Z,1018.25
2019-01-19T03:59:18.868Z,1018.23
2019-01-19T04:00:23.055Z,1018.23
2019-01-19T04:01:27.164Z,1018.21
2019-01-19T04:02:31.318Z,1018.23
2019-01-19T04:03:35.453Z,1018.22
2019-01-19T04:04:39.730Z,1018.23
2019-01-19T04:05:44.768Z,1018.23
2019-01-19T04:06:48.441Z,1018.21
2019-01-19T04:07:52.658Z,1018.19
2019-01-19T04:08:56.707Z,1018.20
2019-01-19T04:10:00.840Z,1018.23
2019-01-19T04:11:05.019Z,1018.24
2019-01-19T04:12:09.218Z,1018.23
2019-01-19T04:13:13.440Z,1018.24
2019-01-19T04:14:17.491Z,1018.23
2019-01-19T04:15:22.654Z,1018.25
2019-01-19T04:16:26.490Z,1018.23
2019-01-19T04:17:30.644Z,1018.23
2019-01-19T04:18:34.806Z,1018.22
2019-01-19T04:19:38.875Z,1018.24
2019-01-19T04:20:43.034Z,1018.23
2019-01-19T04:21:47.158Z,1018.25
2019-01-19T04:22:51.253Z,1018.21
2019-01-19T04:23:55.529Z,1018.20
2019-01-19T04:25:00.485Z,1018.17
2019-01-19T04:26:04.410Z,1018.20
2019-01-19T04:27:08.429Z,1018.20
2019-01-19T04:28:12.582Z,1018.20
2019-01-19T04:29:16.779Z,1018.19
2019-01-19T04:30:20.967Z,1018.18
2019-01-19T04:31:25.156Z,1018.17
2019-01-19T04:32:29.345Z,1018.17
2019-01-19T04:33:33.505Z,1018.19
2019-01-19T04:34:37.723Z,1018.19
2019-01-19T04:35:42.826Z,1018.20
2019-01-19T04:36:46.543Z,1018.17
2019-01-19T04:37:51.585Z,1018.17
2019-01-19T04:38:55.315Z,1018.15
2019-01-19T04:39:59.465Z,1018.16
2019-01-19T04:41:03.759Z,1018.16
2019-01-19T04:42:07.943Z,1018.15
2019-01-19T04:43:12.011Z,1018.16
2019-01-19T04:44:16.131Z,1018.15
2019-01-19T04:45:20.390Z,1018.18
2019-01-19T04:46:24.504Z,1018.17
2019-01-19T04:47:28.642Z,1018.18
2019-01-19T04:48:32.829Z,1018.20
2019-01-19T04:49:36.914Z,1018.18
2019-01-19T04:50:41.132Z,1018.19
2019-01-19T04:51:45.303Z,1018.19
2019-01-19T04:52:49.484Z,1018.20
2019-01-19T04:53:53.558Z,1018.22
2019-01-19T04:54:57.786Z,1018.20
2019-01-19T04:56:01.983Z,1018.22
2019-01-19T04:57:06.254Z,1018.23
2019-01-19T04:58:10.293Z,1018.25
2019-01-19T04:59:14.503Z,1018.24
2019-01-19T05:00:18.506Z,1018.26
2019-01-19T05:01:25.781Z,1018.24
2019-01-19T05:02:28.979Z,1018.26
2019-01-19T05:03:33.013Z,1018.27
2019-01-19T05:04:37.169Z,1018.26
2019-01-19T05:05:41.253Z,1018.25
2019-01-19T05:06:45.414Z,1018.24
2019-01-19T05:07:49.616Z,1018.25
2019-01-19T05:08:53.684Z,1018.24
2019-01-19T05:09:57.831Z,1018.27
2019-01-19T05:11:02.094Z,1018.28
2019-01-19T05:12:07.066Z,1018.27
2019-01-19T05:13:10.797Z,1018.27
2019-01-19T05:14:14.925Z,1018.28
2019-01-19T05:15:19.239Z,1018.30
2019-01-19T05:16:23.243Z,1018.29
2019-01-19T05:17:28.292Z,1018.29
2019-01-19T05:18:32.027Z,1018.28
2019-01-19T05:19:36.267Z,1018.27
2019-01-19T05:20:40.443Z,1018.29
2019-01-19T05:21:44.635Z,1018.30
2019-01-19T05:22:48.692Z,1018.31
2019-01-19T05:23:52.943Z,1018.31
2019-01-19T05:24:57.135Z,1018.31
2019-01-19T05:26:01.209Z,1018.31
2019-01-19T05:27:05.447Z,1018.33
2019-01-19T05:28:09.637Z,1018.34
2019-01-19T05:29:13.701Z,1018.34
2019-01-19T05:30:17.811Z,1018.33
2019-01-19T05:31:22.031Z,1018.34
2019-01-19T05:32:26.078Z,1018.36
2019-01-19T05:33:30.237Z,1018.35
2019-01-19T05:34:34.440Z,1018.33
2019-01-19T05:35:38.635Z,1018.34
2019-01-19T05:36:42.706Z,1018.33
2019-01-19T05:37:46.792Z,1018.34
2019-01-19T05:38:51.034Z,1018.34
2019-01-19T05:39:55.209Z,1018.37
2019-01-19T05:40:59.276Z,1018.37
2019-01-19T05:42:03.708Z,1018.38
2019-01-19T05:43:07.824Z,1018.36
2019-01-19T05:44:11.993Z,1018.36
2019-01-19T05:45:16.074Z,1018.34
2019-01-19T05:46:21.594Z,1018.34
2019-01-19T05:47:27.444Z,1018.34
2019-01-19T05:48:30.650Z,1018.35
2019-01-19T05:49:34.687Z,1018.34
2019-01-19T05:50:38.930Z,1018.35
2019-01-19T05:51:43.070Z,1018.37
2019-01-19T05:52:47.252Z,1018.36
2019-01-19T05:53:51.334Z,1018.35
2019-01-19T05:54:55.565Z,1018.37
2019-01-19T05:55:59.699Z,1018.35
2019-01-19T05:57:03.899Z,1018.35
2019-01-19T05:58:07.981Z,1018.35
2019-01-19T05:59:12.081Z,1018.34
2019-01-19T06:00:16.286Z,1018.34
2019-01-19T06:01:20.489Z,1018.33
2019-01-19T06:02:24.619Z,1018.33
2019-01-19T06:03:28.824Z,1018.35
2019-01-19T06:04:32.951Z,1018.36
2019-01-19T06:05:37.141Z,1018.36
2019-01-19T06:06:46.693Z,1018.37
2019-01-19T06:07:45.514Z,1018.39
2019-01-19T06:08:49.670Z,1018.40
2019-01-19T06:09:53.792Z,1018.39
2019-01-19T06:10:57.956Z,1018.42
2019-01-19T06:12:02.127Z,1018.43
2019-01-19T06:13:06.318Z,1018.42
2019-01-19T06:14:11.276Z,1018.46
2019-01-19T06:15:15.885Z,1018.45
2019-01-19T06:16:19.707Z,1018.45
2019-01-19T06:17:23.892Z,1018.45
2019-01-19T06:18:27.982Z,1018.44
2019-01-19T06:19:32.178Z,1018.46
2019-01-19T06:20:37.138Z,1018.44
2019-01-19T06:21:40.964Z,1018.46
2019-01-19T06:22:45.141Z,1018.47
2019-01-19T06:23:49.325Z,1018.49
2019-01-19T06:24:53.357Z,1018.48
2019-01-19T06:25:57.605Z,1018.48
2019-01-19T06:27:01.801Z,1018.49
2019-01-19T06:28:05.915Z,1018.51
2019-01-19T06:29:10.114Z,1018.49
2019-01-19T06:30:14.169Z,1018.49
2019-01-19T06:31:18.272Z,1018.48
2019-01-19T06:32:23.293Z,1018.49
2019-01-19T06:33:27.150Z,1018.50
2019-01-19T06:34:32.151Z,1018.48
2019-01-19T06:35:35.889Z,1018.49
2019-01-19T06:36:40.148Z,1018.51
2019-01-19T06:37:44.307Z,1018.52
2019-01-19T06:38:48.433Z,1018.53
2019-01-19T06:39:52.543Z,1018.51
2019-01-19T06:40:56.762Z,1018.52
2019-01-19T06:42:00.838Z,1018.52
2019-01-19T06:43:04.977Z,1018.51
2019-01-19T06:44:09.224Z,1018.51
2019-01-19T06:45:13.304Z,1018.51
2019-01-19T06:46:17.398Z,1018.50
2019-01-19T06:47:21.637Z,1018.49
2019-01-19T06:48:25.793Z,1018.50
2019-01-19T06:49:29.966Z,1018.51
2019-01-19T06:50:34.111Z,1018.49
2019-01-19T06:51:38.284Z,1018.50
2019-01-19T06:52:42.321Z,1018.48
2019-01-19T06:53:46.433Z,1018.53
2019-01-19T06:54:50.685Z,1018.52
2019-01-19T06:55:54.856Z,1018.52
2019-01-19T06:56:58.970Z,1018.53
2019-01-19T06:58:03.150Z,1018.53
2019-01-19T06:59:07.259Z,1018.53
2019-01-19T07:00:11.402Z,1018.54
2019-01-19T07:01:15.602Z,1018.57
2019-01-19T07:02:19.677Z,1018.58
2019-01-19T07:03:24.679Z,1018.52
2019-01-19T07:04:28.450Z,1018.55
2019-01-19T07:05:32.573Z,1018.57
2019-01-19T07:06:36.769Z,1018.57
2019-01-19T07:07:40.869Z,1018.55
2019-01-19T07:08:44.990Z,1018.60
2019-01-19T07:09:50.020Z,1018.59
2019-01-19T07:10:54.623Z,1018.57
2019-01-19T07:11:58.359Z,1018.58
2019-01-19T07:13:02.464Z,1018.59
2019-01-19T07:14:06.660Z,1018.59
2019-01-19T07:15:10.856Z,1018.59
2019-01-19T07:16:14.942Z,1018.59
2019-01-19T07:17:19.012Z,1018.58
2019-01-19T07:18:24.054Z,1018.62
2019-01-19T07:19:27.859Z,1018.60
2019-01-19T07:20:31.929Z,1018.59
2019-01-19T07:21:36.046Z,1018.60
2019-01-19T07:22:40.297Z,1018.61
2019-01-19T07:23:44.440Z,1018.62
2019-01-19T07:24:48.672Z,1018.62
2019-01-19T07:25:52.838Z,1018.62
2019-01-19T07:26:56.899Z,1018.62
2019-01-19T07:28:01.118Z,1018.63
2019-01-19T07:29:05.299Z,1018.65
2019-01-19T07:30:09.404Z,1018.66
2019-01-19T07:31:13.502Z,1018.68
2019-01-19T07:32:17.697Z,1018.72
2019-01-19T07:33:21.852Z,1018.73
2019-01-19T07:34:25.926Z,1018.74
2019-01-19T07:35:30.146Z,1018.76
2019-01-19T07:36:34.313Z,1018.78
2019-01-19T07:37:38.383Z,1018.78
2019-01-19T07:38:42.596Z,1018.80
2019-01-19T07:39:46.656Z,1018.81
2019-01-19T07:40:50.869Z,1018.82
2019-01-19T07:41:55.043Z,1018.83
2019-01-19T07:42:59.190Z,1018.86
2019-01-19T07:44:03.232Z,1018.86
2019-01-19T07:45:07.348Z,1018.87
2019-01-19T07:46:11.538Z,1018.90
2019-01-19T07:47:15.619Z,1018.90
2019-01-19T07:48:19.805Z,1018.94
2019-01-19T07:49:23.973Z,1018.95
2019-01-19T07:50:28.072Z,1018.95
2019-01-19T07:51:32.263Z,1018.95
2019-01-19T07:52:36.265Z,1018.97
2019-01-19T07:53:40.441Z,1018.99
2019-01-19T07:54:44.499Z,1019.01
2019-01-19T07:55:48.804Z,1018.99
2019-01-19T07:56:52.969Z,1019.00
2019-01-19T07:57:57.124Z,1019.00
2019-01-19T07:59:01.276Z,1019.02
2019-01-19T08:00:05.439Z,1019.05
2019-01-19T08:01:09.642Z,1019.07
2019-01-19T08:02:13.680Z,1019.07
2019-01-19T08:03:17.776Z,1019.09
2019-01-19T08:04:21.988Z,1019.08
2019-01-19T08:05:26.085Z,1019.09
2019-01-19T08:06:31.046Z,1019.09
2019-01-19T08:07:34.882Z,1019.09
2019-01-19T08:08:39.028Z,1019.11
2019-01-19T08:09:43.077Z,1019.13
2019-01-19T08:10:47.357Z,1019.14
2019-01-19T08:11:51.503Z,1019.13
2019-01-19T08:12:55.621Z,1019.14
2019-01-19T08:13:59.799Z,1019.16
2019-01-19T08:15:03.886Z,1019.20
2019-01-19T08:16:08.045Z,1019.20
2019-01-19T08:17:12.130Z,1019.21
2019-01-19T08:18:17.161Z,1019.20
2019-01-19T08:19:20.939Z,1019.21
2019-01-19T08:20:25.131Z,1019.22
2019-01-19T08:21:29.193Z,1019.23
2019-01-19T08:22:33.228Z,1019.24
2019-01-19T08:23:37.394Z,1019.25
2019-01-19T08:24:41.553Z,1019.24
2019-01-19T08:25:45.804Z,1019.24
2019-01-19T08:26:49.758Z,1019.24
2019-01-19T08:27:53.929Z,1019.23
2019-01-19T08:28:58.162Z,1019.24
2019-01-19T08:30:02.316Z,1019.22
2019-01-19T08:31:06.496Z,1019.25
2019-01-19T08:32:10.560Z,1019.24
2019-01-19T08:33:14.673Z,1019.26
2019-01-19T08:34:18.832Z,1019.27
2019-01-19T08:35:23.068Z,1019.28
2019-01-19T08:36:27.261Z,1019.29
2019-01-19T08:37:32.207Z,1019.28
2019-01-19T08:38:36.031Z,1019.31
2019-01-19T08:39:40.091Z,1019.32
2019-01-19T08:40:44.340Z,1019.31
2019-01-19T08:41:48.407Z,1019.31
2019-01-19T08:42:52.642Z,1019.31
2019-01-19T08:43:56.826Z,1019.31
2019-01-19T08:45:01.004Z,1019.31
2019-01-19T08:46:05.981Z,1019.35
2019-01-19T08:47:09.795Z,1019.37
2019-01-19T08:48:13.974Z,1019.36
2019-01-19T08:49:18.038Z,1019.37
2019-01-19T08:50:22.166Z,1019.34
2019-01-19T08:51:26.227Z,1019.37
2019-01-19T08:52:30.308Z,1019.36
2019-01-19T08:53:34.502Z,1019.36
2019-01-19T08:54:38.636Z,1019.39
2019-01-19T08:55:42.823Z,1019.39
2019-01-19T08:56:47.029Z,1019.39
2019-01-19T08:57:51.112Z,1019.42
2019-01-19T08:58:55.245Z,1019.44
2019-01-19T08:59:59.478Z,1019.45
2019-01-19T09:01:03.648Z,1019.46
2019-01-19T09:02:09.480Z,1019.45
2019-01-19T09:03:12.821Z,1019.48
2019-01-19T09:04:16.289Z,1019.48
2019-01-19T09:05:20.312Z,1019.49
2019-01-19T09:06:24.542Z,1019.46
2019-01-19T09:07:33.691Z,1019.45
2019-01-19T09:08:32.867Z,1019.45
2019-01-19T09:09:36.935Z,1019.46
2019-01-19T09:10:41.029Z,1019.48
2019-01-19T09:11:45.160Z,1019.46
2019-01-19T09:12:49.240Z,1019.47
2019-01-19T09:13:53.377Z,1019.49
2019-01-19T09:14:57.603Z,1019.46
2019-01-19T09:16:01.671Z,1019.47
2019-01-19T09:17:05.905Z,1019.47
2019-01-19T09:18:09.969Z,1019.47
2019-01-19T09:19:14.198Z,1019.47
2019-01-19T09:20:18.238Z,1019.43
2019-01-19T09:21:22.339Z,1019.44
2019-01-19T09:22:26.607Z,1019.46
2019-01-19T09:23:30.758Z,1019.47
2019-01-19T09:24:34.933Z,1019.47
2019-01-19T09:25:38.967Z,1019.45
2019-01-19T09:26:43.107Z,1019.45
2019-01-19T09:27:47.323Z,1019.46
2019-01-19T09:28:51.394Z,1019.47
2019-01-19T09:29:55.505Z,1019.47
2019-01-19T09:30:59.717Z,1019.45
2019-01-19T09:32:03.801Z,1019.45
2019-01-19T09:33:07.982Z,1019.44
2019-01-19T09:34:12.108Z,1019.46
2019-01-19T09:35:16.226Z,1019.50
2019-01-19T09:36:20.440Z,1019.51
2019-01-19T09:37:25.421Z,1019.51
2019-01-19T09:38:29.247Z,1019.54
2019-01-19T09:39:33.392Z,1019.56
2019-01-19T09:40:37.536Z,1019.55
2019-01-19T09:41:41.573Z,1019.59
2019-01-19T09:42:45.715Z,1019.60
2019-01-19T09:43:49.923Z,1019.57
2019-01-19T09:44:54.005Z,1019.58
2019-01-19T09:45:58.224Z,1019.59
2019-01-19T09:47:02.427Z,1019.57
2019-01-19T09:48:06.582Z,1019.58
2019-01-19T09:49:10.748Z,1019.58
2019-01-19T09:50:14.894Z,1019.58
2019-01-19T09:51:18.980Z,1019.60
2019-01-19T09:52:23.005Z,1019.62
2019-01-19T09:53:27.280Z,1019.63
2019-01-19T09:54:31.441Z,1019.64
2019-01-19T09:55:35.624Z,1019.64
2019-01-19T09:56:39.769Z,1019.63
2019-01-19T09:57:43.954Z,1019.65
2019-01-19T09:58:48.008Z,1019.61
2019-01-19T09:59:52.217Z,1019.60
2019-01-19T10:00:56.286Z,1019.63
2019-01-19T10:02:00.429Z,1019.61
2019-01-19T10:03:04.577Z,1019.62
2019-01-19T10:04:08.725Z,1019.64
2019-01-19T10:05:12.947Z,1019.64
2019-01-19T10:06:17.097Z,1019.62
2019-01-19T10:07:21.301Z,1019.62
2019-01-19T10:08:25.443Z,1019.61
2019-01-19T10:09:29.586Z,1019.64
2019-01-19T10:10:33.770Z,1019.62
2019-01-19T10:11:37.850Z,1019.62
2019-01-19T10:12:42.109Z,1019.64
2019-01-19T10:13:46.172Z,1019.65
2019-01-19T10:14:51.171Z,1019.66
2019-01-19T10:15:54.916Z,1019.71
2019-01-19T10:16:59.103Z,1019.70
2019-01-19T10:18:03.222Z,1019.70
2019-01-19T10:19:07.274Z,1019.68
2019-01-19T10:20:11.440Z,1019.67
2019-01-19T10:21:15.600Z,1019.65
2019-01-19T10:22:20.589Z,1019.65
2019-01-19T10:23:24.362Z,1019.64
2019-01-19T10:24:28.471Z,1019.64
2019-01-19T10:25:32.628Z,1019.61
2019-01-19T10:26:36.850Z,1019.63
2019-01-19T10:27:41.020Z,1019.65
2019-01-19T10:28:45.067Z,1019.62
2019-01-19T10:29:49.288Z,1019.63
2019-01-19T10:30:53.275Z,1019.63
2019-01-19T10:31:57.534Z,1019.63
2019-01-19T10:33:01.753Z,1019.60
2019-01-19T10:34:05.819Z,1019.60
2019-01-19T10:35:09.878Z,1019.58
2019-01-19T10:36:14.005Z,1019.55
2019-01-19T10:37:18.153Z,1019.54
2019-01-19T10:38:22.304Z,1019.55
2019-01-19T10:39:26.331Z,1019.54
2019-01-19T10:40:30.402Z,1019.53
2019-01-19T10:41:40.843Z,1019.54
2019-01-19T10:42:38.822Z,1019.54
2019-01-19T10:43:43.023Z,1019.54
2019-01-19T10:44:50.123Z,1019.54
2019-01-19T10:45:53.398Z,1019.54
2019-01-19T10:46:57.521Z,1019.54
2019-01-19T10:48:01.660Z,1019.51
2019-01-19T10:49:05.711Z,1019.50
2019-01-19T10:50:09.914Z,1019.52
2019-01-19T10:51:14.062Z,1019.51
2019-01-19T10:52:18.245Z,1019.51
2019-01-19T10:53:22.466Z,1019.51
2019-01-19T10:54:26.604Z,1019.50
2019-01-19T10:55:30.765Z,1019.49
2019-01-19T10:56:34.932Z,1019.47
2019-01-19T10:57:39.900Z,1019.48
2019-01-19T10:58:43.745Z,1019.45
2019-01-19T10:59:47.891Z,1019.47
2019-01-19T11:00:55.029Z,1019.46
2019-01-19T11:01:58.177Z,1019.47
2019-01-19T11:03:02.313Z,1019.45
2019-01-19T11:04:06.408Z,1019.46
2019-01-19T11:05:10.628Z,1019.46
2019-01-19T11:06:14.675Z,1019.45
2019-01-19T11:07:18.858Z,1019.42
2019-01-19T11:08:24.053Z,1019.41
2019-01-19T11:09:27.220Z,1019.38
2019-01-19T11:10:31.277Z,1019.35
2019-01-19T11:11:35.466Z,1019.36
2019-01-19T11:12:39.622Z,1019.34
2019-01-19T11:13:43.713Z,1019.32
2019-01-19T11:14:47.791Z,1019.31
2019-01-19T11:15:51.948Z,1019.31
2019-01-19T11:16:56.060Z,1019.25
2019-01-19T11:18:00.207Z,1019.25
2019-01-19T11:19:04.358Z,1019.26
2019-01-19T11:20:08.586Z,1019.28
2019-01-19T11:21:12.788Z,1019.27
2019-01-19T11:22:16.948Z,1019.27
2019-01-19T11:23:21.084Z,1019.24
2019-01-19T11:24:25.289Z,1019.23
2019-01-19T11:25:29.320Z,1019.25
2019-01-19T11:26:33.547Z,1019.25
2019-01-19T11:27:37.693Z,1019.24
2019-01-19T11:28:41.773Z,1019.23
2019-01-19T11:29:46.800Z,1019.23
2019-01-19T11:30:50.505Z,1019.23
2019-01-19T11:31:54.608Z,1019.20
2019-01-19T11:32:58.749Z,1019.20
2019-01-19T11:34:03.021Z,1019.21
2019-01-19T11:35:07.239Z,1019.20
2019-01-19T11:36:11.388Z,1019.16
2019-01-19T11:37:15.555Z,1019.17
2019-01-19T11:38:20.181Z,1019.18
2019-01-19T11:39:23.754Z,1019.17
2019-01-19T11:40:27.943Z,1019.17
2019-01-19T11:41:32.023Z,1019.17
2019-01-19T11:42:36.120Z,1019.16
2019-01-19T11:43:40.313Z,1019.17
2019-01-19T11:44:44.413Z,1019.14
2019-01-19T11:45:48.547Z,1019.14
2019-01-19T11:46:52.745Z,1019.13
2019-01-19T11:47:56.727Z,1019.11
2019-01-19T11:49:01.002Z,1019.13
2019-01-19T11:50:05.068Z,1019.10
2019-01-19T11:51:09.378Z,1019.11
2019-01-19T11:52:13.308Z,1019.10
2019-01-19T11:53:17.614Z,1019.09
2019-01-19T11:54:21.767Z,1019.09
2019-01-19T11:55:25.870Z,1019.10
2019-01-19T11:56:30.896Z,1019.08
2019-01-19T11:57:34.610Z,1019.08
2019-01-19T11:58:38.849Z,1019.08
2019-01-19T11:59:42.981Z,1019.07
2019-01-19T12:00:47.080Z,1019.07
2019-01-19T12:01:51.320Z,1019.06
2019-01-19T12:02:56.283Z,1019.05
2019-01-19T12:04:00.012Z,1019.04
2019-01-19T12:05:04.147Z,1019.03
2019-01-19T12:06:08.365Z,1019.02
2019-01-19T12:07:12.439Z,1019.02
2019-01-19T12:08:19.653Z,1019.02
2019-01-19T12:09:20.837Z,1019.06
2019-01-19T12:10:24.991Z,1019.08
2019-01-19T12:11:29.191Z,1019.07
2019-01-19T12:12:33.215Z,1019.06
2019-01-19T12:13:37.478Z,1019.03
2019-01-19T12:14:41.540Z,1019.04
2019-01-19T12:15:45.614Z,1019.04
2019-01-19T12:16:49.860Z,1019.03
2019-01-19T12:17:54.037Z,1019.03
2019-01-19T12:18:58.203Z,1019.03
2019-01-19T12:20:03.147Z,1019.00
2019-01-19T12:21:07.000Z,1019.01
2019-01-19T12:22:11.918Z,1019.00
2019-01-19T12:23:15.655Z,1019.01
2019-01-19T12:24:19.661Z,1019.00
2019-01-19T12:25:23.948Z,1019.01
2019-01-19T12:26:28.131Z,1019.02
2019-01-19T12:27:32.305Z,1019.01
2019-01-19T12:28:39.451Z,1019.02
2019-01-19T12:29:42.816Z,1019.02
2019-01-19T12:30:46.832Z,1019.04
2019-01-19T12:31:51.076Z,1019.00
2019-01-19T12:32:55.211Z,1019.04
2019-01-19T12:33:59.415Z,1019.02
2019-01-19T12:35:03.484Z,1019.02
2019-01-19T12:36:07.698Z,1019.03
2019-01-19T12:37:11.880Z,1019.04
2019-01-19T12:38:16.002Z,1019.01
2019-01-19T12:39:20.171Z,1019.00
2019-01-19T12:40:24.145Z,1019.02
2019-01-19T12:41:28.416Z,1019.01
2019-01-19T12:42:32.588Z,1019.02
2019-01-19T12:43:36.746Z,1019.01
2019-01-19T12:44:40.880Z,1019.01
2019-01-19T12:45:44.875Z,1019.02
2019-01-19T12:46:49.021Z,1019.03
2019-01-19T12:47:53.204Z,1019.02
2019-01-19T12:48:57.417Z,1019.01
2019-01-19T12:50:01.468Z,1019.00
2019-01-19T12:51:05.563Z,1018.97
2019-01-19T12:52:09.717Z,1018.97
2019-01-19T12:53:13.943Z,1018.99
2019-01-19T12:54:17.903Z,1018.98
2019-01-19T12:55:22.074Z,1018.95
2019-01-19T12:56:26.274Z,1018.95